Time;durP1;ratioP1;P1;durP2;ratioP2;P2;SDS_P1;SDS_P2;PMS_P1;PMS_P2;Temp;Humidity;BMP_temperature;BMP_pressure;BME280_temperature;BME280_humidity;BME280_pressure;Samples;Min_cycle;Max_cycle;Signal;HPM_P1;HPM_P2
2021/11/19 00:01:26;;;;;;;21.73;9.80;;;9.00;99.90;;;;;;5033787;28;20076;-58
2021/11/19 00:03:51;;;;;;;23.15;10.43;;;9.10;99.90;;;;;;5056542;28;20032;-60
2021/11/19 00:06:18;;;;;;;20.90;9.80;;;9.10;99.90;;;;;;5069403;28;20119;-58
2021/11/19 00:08:45;;;;;;;15.75;10.23;;;9.10;99.90;;;;;;5053358;28;20076;-59
2021/11/19 00:11:14;;;;;;;22.58;11.38;;;9.00;99.90;;;;;;5053253;28;20036;-58
2021/11/19 00:13:41;;;;;;;17.02;9.73;;;9.10;99.90;;;;;;5053729;28;20087;-59
2021/11/19 00:16:07;;;;;;;19.65;10.20;;;9.10;99.90;;;;;;5052111;28;20116;-62
2021/11/19 00:18:33;;;;;;;18.67;11.38;;;9.10;99.90;;;;;;5040423;28;20042;-55
2021/11/19 00:20:59;;;;;;;22.48;10.57;;;9.10;99.90;;;;;;5035998;28;20434;-60
2021/11/19 00:23:25;;;;;;;16.25;9.70;;;9.20;99.90;;;;;;5053503;28;20128;-58
2021/11/19 00:25:51;;;;;;;16.60;9.93;;;9.20;99.90;;;;;;5053419;28;20119;-57
2021/11/19 00:28:18;;;;;;;21.40;10.40;;;9.20;99.90;;;;;;5053572;28;20437;-54
2021/11/19 00:30:44;;;;;;;19.52;10.15;;;9.20;99.90;;;;;;5052067;28;20029;-60
2021/11/19 00:33:10;;;;;;;17.92;10.52;;;9.20;99.90;;;;;;5050519;28;20040;-59
2021/11/19 00:35:39;;;;;;;21.40;10.23;;;9.20;99.90;;;;;;5052503;28;20029;-59
2021/11/19 00:38:06;;;;;;;15.55;9.60;;;9.20;99.90;;;;;;5052015;28;20021;-58
2021/11/19 00:40:37;;;;;;;17.60;10.02;;;9.20;99.90;;;;;;5045935;28;20034;-61
2021/11/19 00:43:04;;;;;;;21.67;10.40;;;9.20;99.90;;;;;;5043774;28;20036;-57
2021/11/19 00:45:30;;;;;;;19.98;12.32;;;9.20;99.90;;;;;;5040411;28;20104;-57
2021/11/19 00:47:57;;;;;;;18.15;10.40;;;9.30;99.90;;;;;;5044021;28;20037;-59
2021/11/19 00:50:29;;;;;;;19.17;10.77;;;9.20;99.90;;;;;;5040522;28;20120;-59
2021/11/19 00:52:54;;;;;;;18.30;9.38;;;9.30;99.90;;;;;;5043333;28;20496;-57
2021/11/19 00:55:21;;;;;;;18.10;10.07;;;9.20;99.90;;;;;;5044065;28;20033;-60
2021/11/19 00:57:46;;;;;;;18.83;10.93;;;9.20;99.90;;;;;;5041886;28;20385;-60
2021/11/19 01:00:16;;;;;;;22.02;11.23;;;9.20;99.90;;;;;;5040877;28;20029;-59
2021/11/19 01:02:42;;;;;;;28.25;12.38;;;9.30;99.90;;;;;;5041764;28;20029;-56
2021/11/19 01:05:08;;;;;;;17.63;10.63;;;9.20;99.90;;;;;;5044749;28;20037;-58
2021/11/19 01:07:33;;;;;;;16.98;11.05;;;9.20;99.90;;;;;;5040825;28;20029;-59
2021/11/19 01:10:08;;;;;;;24.23;11.20;;;9.30;99.90;;;;;;5043219;28;20036;-57
2021/11/19 01:12:34;;;;;;;23.13;11.40;;;9.20;99.90;;;;;;5043473;28;20401;-59
2021/11/19 01:15:07;;;;;;;20.10;11.20;;;9.30;99.90;;;;;;5042931;28;20393;-59
2021/11/19 01:17:42;;;;;;;20.38;12.20;;;9.20;99.90;;;;;;5041105;28;20029;-59
2021/11/19 01:20:24;;;;;;;18.88;11.35;;;9.20;99.90;;;;;;5039078;28;20029;-58
2021/11/19 01:22:53;;;;;;;19.20;10.50;;;9.20;99.90;;;;;;5045325;28;20064;-58
2021/11/19 01:25:23;;;;;;;21.08;10.57;;;9.30;99.90;;;;;;5042688;28;20052;-58
2021/11/19 01:27:49;;;;;;;16.60;11.07;;;9.30;99.90;;;;;;5042402;28;20044;-56
2021/11/19 01:30:29;;;;;;;20.15;11.90;;;9.20;99.90;;;;;;5042251;28;20041;-60
2021/11/19 01:32:54;;;;;;;21.98;11.07;;;9.20;99.90;;;;;;5041913;28;20104;-59
2021/11/19 01:35:22;;;;;;;25.58;12.20;;;9.20;99.90;;;;;;5042436;28;20115;-56
2021/11/19 01:37:48;;;;;;;21.83;11.55;;;9.10;99.90;;;;;;5044462;28;20029;-58
2021/11/19 01:40:18;;;;;;;16.63;10.38;;;9.20;99.90;;;;;;5046484;28;20388;-58
2021/11/19 01:42:48;;;;;;;20.10;11.20;;;9.20;99.90;;;;;;5042031;28;20029;-58
2021/11/19 01:45:21;;;;;;;20.98;11.35;;;9.20;99.90;;;;;;5040777;28;20026;-55
2021/11/19 01:47:53;;;;;;;21.05;11.90;;;9.20;99.90;;;;;;5041453;28;20092;-57
2021/11/19 01:50:33;;;;;;;20.45;11.43;;;9.20;99.90;;;;;;5039138;28;20037;-59
2021/11/19 01:53:24;;;;;;;22.13;11.27;;;9.20;99.90;;;;;;5041107;28;20029;-60
2021/11/19 01:56:08;;;;;;;23.13;12.32;;;9.20;99.90;;;;;;5042801;28;20036;-56
2021/11/19 01:58:42;;;;;;;24.13;11.73;;;9.20;99.90;;;;;;5045809;28;20611;-59
2021/11/19 02:01:20;;;;;;;18.43;11.63;;;9.20;99.90;;;;;;5042543;28;20280;-59
2021/11/19 02:03:51;;;;;;;23.77;11.02;;;9.20;99.90;;;;;;5048142;28;20266;-57
2021/11/19 02:06:24;;;;;;;22.42;11.63;;;9.20;99.90;;;;;;5044497;28;20061;-58
2021/11/19 02:08:50;;;;;;;19.67;12.60;;;9.10;99.90;;;;;;5043139;28;20388;-57
2021/11/19 02:11:41;;;;;;;21.65;11.50;;;9.10;99.90;;;;;;5043192;28;20103;-57
2021/11/19 02:14:17;;;;;;;19.52;11.18;;;9.10;99.90;;;;;;5045462;28;20197;-56
2021/11/19 02:16:50;;;;;;;23.27;11.30;;;9.10;99.90;;;;;;5045124;28;20030;-59
2021/11/19 02:19:22;;;;;;;18.38;11.52;;;9.10;99.90;;;;;;5044293;28;20041;-56
2021/11/19 02:21:53;;;;;;;20.48;11.50;;;9.00;99.90;;;;;;5045979;28;20025;-60
2021/11/19 02:24:42;;;;;;;20.48;11.55;;;9.10;99.90;;;;;;5044494;28;20574;-56
2021/11/19 02:27:19;;;;;;;17.35;10.85;;;9.10;99.90;;;;;;5043139;28;20136;-58
2021/11/19 02:30:05;;;;;;;20.38;11.80;;;9.20;99.90;;;;;;5044354;28;20022;-57
2021/11/19 02:32:36;;;;;;;19.85;12.13;;;9.20;99.90;;;;;;5045082;28;20036;-58
2021/11/19 02:35:02;;;;;;;18.90;10.52;;;9.20;99.90;;;;;;5044098;28;20021;-60
2021/11/19 02:37:46;;;;;;;22.65;11.45;;;9.20;99.90;;;;;;5043662;28;20041;-58
2021/11/19 02:40:19;;;;;;;22.02;11.88;;;9.20;99.90;;;;;;5045061;28;20028;-59
2021/11/19 02:42:50;;;;;;;18.73;11.43;;;9.30;99.90;;;;;;5046162;28;20112;-58
2021/11/19 02:45:21;;;;;;;19.23;11.05;;;9.20;99.90;;;;;;5043302;28;20029;-55
2021/11/19 02:47:47;;;;;;;19.40;10.82;;;9.30;99.90;;;;;;5043925;28;20282;-60
2021/11/19 02:50:16;;;;;;;22.42;11.35;;;9.30;99.90;;;;;;5043005;28;20024;-59
2021/11/19 02:52:44;;;;;;;19.52;10.63;;;9.30;99.90;;;;;;5040393;28;20056;-59
2021/11/19 02:55:15;;;;;;;20.55;11.60;;;9.20;99.90;;;;;;5042994;28;20033;-58
2021/11/19 02:57:42;;;;;;;22.60;12.70;;;9.30;99.90;;;;;;5043963;28;20132;-59
2021/11/19 03:00:12;;;;;;;18.67;11.98;;;9.30;99.90;;;;;;5045352;28;20036;-59
2021/11/19 03:02:37;;;;;;;20.48;11.32;;;9.30;99.90;;;;;;5043097;28;20040;-57
2021/11/19 03:05:08;;;;;;;17.85;10.40;;;9.30;99.90;;;;;;5047752;28;20396;-60
2021/11/19 03:07:34;;;;;;;22.45;12.70;;;9.40;99.90;;;;;;5044438;28;20025;-58
2021/11/19 03:10:04;;;;;;;22.10;10.52;;;9.30;99.90;;;;;;5042183;28;20103;-56
2021/11/19 03:12:33;;;;;;;17.45;11.63;;;9.40;99.90;;;;;;5043879;28;20061;-54
2021/11/19 03:15:01;;;;;;;13.98;10.25;;;9.40;99.90;;;;;;5043456;28;20061;-50
2021/11/19 03:17:27;;;;;;;19.30;11.13;;;9.40;99.90;;;;;;5041773;28;20044;-56
2021/11/19 03:19:55;;;;;;;20.75;11.93;;;9.40;99.90;;;;;;5044249;28;20028;-54
2021/11/19 03:22:25;;;;;;;19.10;11.40;;;9.40;99.90;;;;;;5044289;28;20401;-55
2021/11/19 03:24:51;;;;;;;23.77;12.50;;;9.40;99.90;;;;;;5042195;28;20053;-59
2021/11/19 03:27:17;;;;;;;24.75;11.48;;;9.40;99.90;;;;;;5043576;28;20484;-59
2021/11/19 03:29:45;;;;;;;22.95;11.45;;;9.50;99.90;;;;;;5043098;28;20108;-55
2021/11/19 03:32:14;;;;;;;19.25;12.15;;;9.50;99.90;;;;;;5042503;28;20033;-60
2021/11/19 03:34:40;;;;;;;16.90;11.07;;;9.50;99.90;;;;;;5044136;28;20036;-59
2021/11/19 03:37:06;;;;;;;18.35;11.68;;;9.50;99.90;;;;;;5044973;28;20025;-55
2021/11/19 03:39:32;;;;;;;18.95;12.10;;;9.40;99.90;;;;;;5044729;28;20032;-58
2021/11/19 03:42:00;;;;;;;19.92;11.85;;;9.50;99.90;;;;;;5042237;28;20112;-59
2021/11/19 03:44:30;;;;;;;22.08;12.07;;;9.50;99.90;;;;;;5043005;28;20555;-58
2021/11/19 03:47:01;;;;;;;20.75;11.95;;;9.50;99.90;;;;;;5042103;28;20094;-59
2021/11/19 03:49:28;;;;;;;24.05;11.63;;;9.40;99.90;;;;;;5043178;28;20033;-59
2021/11/19 03:52:00;;;;;;;17.67;11.18;;;9.50;99.90;;;;;;5043588;28;20031;-58
2021/11/19 03:54:28;;;;;;;22.27;11.73;;;9.50;99.90;;;;;;5043851;28;20056;-59
2021/11/19 03:56:55;;;;;;;18.17;11.35;;;9.50;99.90;;;;;;5043764;28;20025;-59
2021/11/19 03:59:22;;;;;;;16.17;10.77;;;9.60;99.90;;;;;;5035947;28;20075;-57
2021/11/19 04:01:50;;;;;;;19.70;12.15;;;9.60;99.90;;;;;;5033399;28;20077;-58
2021/11/19 04:04:19;;;;;;;19.35;11.55;;;9.50;99.90;;;;;;5062146;28;20033;-54
2021/11/19 04:06:45;;;;;;;15.98;11.38;;;9.60;99.90;;;;;;5073890;28;20028;-57
2021/11/19 04:09:11;;;;;;;13.10;11.02;;;9.50;99.90;;;;;;5073134;28;20032;-57
2021/11/19 04:11:37;;;;;;;19.20;11.40;;;9.50;99.90;;;;;;5072655;28;20102;-60
2021/11/19 04:14:03;;;;;;;21.60;12.45;;;9.40;99.90;;;;;;5073565;28;20024;-57
2021/11/19 04:16:34;;;;;;;16.35;11.85;;;9.50;99.90;;;;;;5073847;28;20041;-59
2021/11/19 04:19:00;;;;;;;15.80;11.90;;;9.50;99.90;;;;;;5073095;28;20190;-57
2021/11/19 04:21:27;;;;;;;18.60;12.35;;;9.50;99.90;;;;;;5065710;28;20037;-55
2021/11/19 04:23:55;;;;;;;16.90;12.07;;;9.50;99.90;;;;;;5053844;28;20067;-58
2021/11/19 04:26:23;;;;;;;15.18;11.52;;;9.50;99.90;;;;;;5053103;28;20029;-60
2021/11/19 04:28:49;;;;;;;19.45;12.98;;;9.60;99.90;;;;;;5053548;28;20041;-58
2021/11/19 04:31:18;;;;;;;14.13;11.25;;;9.70;99.90;;;;;;5053134;28;20036;-60
2021/11/19 04:33:44;;;;;;;16.05;10.95;;;9.70;99.90;;;;;;5053114;28;20029;-60
2021/11/19 04:36:11;;;;;;;14.77;11.20;;;9.70;99.90;;;;;;5053254;28;20393;-58
2021/11/19 04:38:36;;;;;;;15.98;12.07;;;9.70;99.90;;;;;;5052836;28;20418;-59
2021/11/19 04:41:04;;;;;;;16.85;12.10;;;9.80;99.90;;;;;;5051834;28;20052;-57
2021/11/19 04:43:30;;;;;;;15.23;11.50;;;9.80;99.90;;;;;;5052413;28;20037;-58
2021/11/19 04:45:56;;;;;;;15.93;10.85;;;9.80;99.90;;;;;;5053284;28;20033;-58
2021/11/19 04:48:24;;;;;;;15.02;12.02;;;9.90;99.90;;;;;;5053501;28;20047;-54
2021/11/19 04:50:52;;;;;;;16.65;13.35;;;9.90;99.90;;;;;;5051946;28;20033;-59
2021/11/19 04:53:22;;;;;;;18.65;12.85;;;9.90;99.90;;;;;;5052844;28;20037;-59
2021/11/19 04:55:47;;;;;;;14.73;11.18;;;9.80;99.90;;;;;;5052661;28;20028;-57
2021/11/19 04:58:14;;;;;;;17.40;11.50;;;9.80;99.90;;;;;;5052954;28;20366;-57
2021/11/19 05:00:47;;;;;;;17.70;11.35;;;9.80;99.90;;;;;;5052113;28;20104;-59
2021/11/19 05:03:13;;;;;;;17.50;11.85;;;9.70;99.90;;;;;;5057350;28;20019;-61
2021/11/19 05:05:40;;;;;;;16.38;11.25;;;9.80;99.90;;;;;;5072698;28;20047;-60
2021/11/19 05:08:07;;;;;;;16.38;12.15;;;9.80;99.90;;;;;;5072747;28;20044;-60
2021/11/19 05:10:35;;;;;;;16.42;10.65;;;9.60;99.90;;;;;;5072901;28;20157;-55
2021/11/19 05:13:02;;;;;;;18.80;10.60;;;9.70;99.90;;;;;;5072686;28;20037;-56
2021/11/19 05:15:28;;;;;;;18.55;11.20;;;9.70;99.90;;;;;;5071886;28;20043;-59
2021/11/19 05:17:54;;;;;;;14.48;10.20;;;9.60;99.90;;;;;;5072920;28;20123;-61
2021/11/19 05:20:22;;;;;;;15.65;11.13;;;9.60;99.90;;;;;;5072382;28;20174;-59
2021/11/19 05:22:48;;;;;;;15.90;11.15;;;9.50;99.90;;;;;;5053835;28;20447;-62
2021/11/19 05:25:16;;;;;;;19.70;10.63;;;9.50;99.90;;;;;;5052082;28;20055;-59
2021/11/19 05:27:43;;;;;;;16.02;11.23;;;9.50;99.90;;;;;;5052736;28;20037;-58
2021/11/19 05:30:09;;;;;;;23.25;11.35;;;9.50;99.90;;;;;;5052653;28;20037;-59
2021/11/19 05:32:35;;;;;;;16.90;11.10;;;9.50;99.90;;;;;;5052211;28;20060;-63
2021/11/19 05:35:01;;;;;;;16.08;11.50;;;9.50;99.90;;;;;;5047059;28;20037;-59
2021/11/19 05:37:26;;;;;;;22.73;12.13;;;9.50;99.90;;;;;;5036310;28;20033;-60
2021/11/19 05:39:52;;;;;;;17.27;12.32;;;9.50;99.90;;;;;;5044982;28;20544;-59
2021/11/19 05:42:18;;;;;;;18.00;12.18;;;9.50;99.90;;;;;;5049605;28;20089;-59
2021/11/19 05:44:43;;;;;;;15.05;11.65;;;9.50;99.90;;;;;;5056635;28;20140;-58
2021/11/19 05:47:10;;;;;;;21.95;13.68;;;9.50;99.90;;;;;;5036641;28;20644;-59
2021/11/19 05:49:37;;;;;;;19.13;12.43;;;9.50;99.90;;;;;;5036137;28;20127;-58
2021/11/19 05:52:06;;;;;;;21.00;12.48;;;9.50;99.90;;;;;;5036467;28;20345;-60
2021/11/19 05:54:34;;;;;;;18.02;11.80;;;9.40;99.90;;;;;;5036705;28;20040;-59
2021/11/19 05:57:00;;;;;;;19.52;11.82;;;9.40;99.90;;;;;;5036473;28;20485;-56
2021/11/19 05:59:26;;;;;;;16.13;11.10;;;9.50;99.90;;;;;;5055854;28;20025;-59
2021/11/19 06:01:52;;;;;;;19.95;11.57;;;9.50;99.90;;;;;;5056623;28;20392;-58
2021/11/19 06:04:18;;;;;;;17.40;11.57;;;9.50;99.90;;;;;;5070871;28;20033;-60
2021/11/19 06:06:43;;;;;;;18.33;11.15;;;9.60;99.90;;;;;;5076950;28;20091;-58
2021/11/19 06:09:15;;;;;;;16.70;11.40;;;9.50;99.90;;;;;;5076199;28;20082;-59
2021/11/19 06:11:44;;;;;;;15.68;11.38;;;9.50;99.90;;;;;;5076017;28;20032;-58
2021/11/19 06:14:17;;;;;;;17.00;11.77;;;9.60;99.90;;;;;;5076324;28;20060;-58
2021/11/19 06:16:50;;;;;;;18.52;11.80;;;9.70;99.90;;;;;;5075929;28;20036;-60
2021/11/19 06:19:20;;;;;;;16.75;11.65;;;9.70;99.90;;;;;;5076007;28;20028;-59
2021/11/19 06:21:50;;;;;;;16.90;12.45;;;9.70;99.90;;;;;;5066877;28;20068;-61
2021/11/19 06:24:20;;;;;;;16.98;11.45;;;9.70;99.90;;;;;;5056038;28;20029;-59
2021/11/19 06:26:47;;;;;;;19.33;12.13;;;9.70;99.90;;;;;;5054166;28;20511;-58
2021/11/19 06:29:13;;;;;;;16.50;11.38;;;9.80;99.90;;;;;;5055519;28;20032;-59
2021/11/19 06:31:42;;;;;;;17.33;11.80;;;9.70;99.90;;;;;;5055641;28;20032;-60
2021/11/19 06:34:11;;;;;;;15.55;10.95;;;9.80;99.90;;;;;;5055169;28;20488;-57
2021/11/19 06:36:41;;;;;;;13.95;11.35;;;9.80;99.90;;;;;;5056237;28;20033;-58
2021/11/19 06:39:07;;;;;;;18.70;11.57;;;9.90;99.90;;;;;;5055824;28;20423;-58
2021/11/19 06:41:33;;;;;;;16.98;11.85;;;9.80;99.90;;;;;;5056051;28;20037;-60
2021/11/19 06:43:59;;;;;;;18.20;12.68;;;9.80;99.90;;;;;;5055180;28;20473;-58
2021/11/19 06:46:24;;;;;;;14.65;12.25;;;9.80;99.90;;;;;;5055797;28;20029;-58
2021/11/19 06:48:51;;;;;;;20.77;12.40;;;9.80;99.90;;;;;;5055463;28;20060;-59
2021/11/19 06:51:18;;;;;;;16.83;12.43;;;9.80;99.90;;;;;;5055137;28;20041;-60
2021/11/19 06:53:44;;;;;;;22.30;13.55;;;9.90;99.90;;;;;;5055290;28;20029;-58
2021/11/19 06:56:10;;;;;;;17.83;12.45;;;9.80;99.90;;;;;;5055291;28;20093;-56
2021/11/19 06:58:36;;;;;;;18.05;13.88;;;9.80;99.90;;;;;;5055572;28;20514;-59
2021/11/19 07:01:03;;;;;;;19.25;13.25;;;9.80;99.90;;;;;;5054190;28;20354;-54
2021/11/19 07:03:30;;;;;;;20.08;12.88;;;9.90;99.90;;;;;;5063539;28;20104;-59
2021/11/19 07:05:56;;;;;;;18.45;14.25;;;9.80;99.90;;;;;;5076232;28;20531;-58
2021/11/19 07:08:22;;;;;;;16.45;12.82;;;9.90;99.90;;;;;;5075892;28;20037;-59
2021/11/19 07:10:54;;;;;;;16.92;13.43;;;9.80;99.90;;;;;;5075361;28;20530;-56
2021/11/19 07:13:20;;;;;;;17.80;13.90;;;9.80;99.90;;;;;;5075520;28;20055;-60
2021/11/19 07:15:46;;;;;;;19.52;13.30;;;9.80;99.90;;;;;;5073019;28;20530;-56
2021/11/19 07:18:12;;;;;;;20.75;13.60;;;9.80;99.90;;;;;;5073647;28;20043;-53
2021/11/19 07:20:38;;;;;;;21.10;14.18;;;9.90;99.90;;;;;;5072148;28;20130;-54
2021/11/19 07:23:05;;;;;;;19.88;14.07;;;9.90;99.90;;;;;;5053456;28;20377;-58
2021/11/19 07:25:32;;;;;;;15.10;13.35;;;9.90;99.90;;;;;;5052954;28;20041;-57
2021/11/19 07:27:59;;;;;;;17.00;13.55;;;9.80;99.90;;;;;;5053129;28;20175;-57
2021/11/19 07:30:29;;;;;;;19.48;13.55;;;9.90;99.90;;;;;;5048708;28;21328;-59
2021/11/19 07:32:55;;;;;;;19.35;13.52;;;9.90;99.90;;;;;;5050503;28;20077;-60
2021/11/19 07:35:21;;;;;;;16.40;13.27;;;9.90;99.90;;;;;;5048606;28;20120;-58
2021/11/19 07:37:47;;;;;;;17.55;14.23;;;9.90;99.90;;;;;;5068851;28;20029;-61
2021/11/19 07:40:16;;;;;;;17.40;13.63;;;9.90;99.90;;;;;;5067744;28;20086;-56
2021/11/19 07:42:42;;;;;;;16.27;13.30;;;9.90;99.90;;;;;;5065256;28;20032;-58
2021/11/19 07:45:08;;;;;;;16.60;12.45;;;9.90;99.90;;;;;;5071203;28;20119;-56
2021/11/19 07:47:35;;;;;;;17.38;12.60;;;9.80;99.90;;;;;;5072375;28;20105;-60
2021/11/19 07:50:01;;;;;;;18.63;12.38;;;9.90;99.90;;;;;;5072170;28;20043;-59
2021/11/19 07:52:27;;;;;;;18.38;14.55;;;9.90;99.90;;;;;;5072042;28;20041;-59
2021/11/19 07:54:52;;;;;;;16.73;13.65;;;9.90;99.90;;;;;;5071646;28;20103;-58
2021/11/19 07:57:18;;;;;;;16.10;12.25;;;9.90;99.90;;;;;;5070980;28;20032;-57
2021/11/19 07:59:44;;;;;;;19.02;14.18;;;9.90;99.90;;;;;;5072087;28;20109;-60
2021/11/19 08:02:09;;;;;;;17.27;13.43;;;9.90;99.90;;;;;;5043083;28;20029;-60
2021/11/19 08:04:36;;;;;;;19.15;13.50;;;10.00;99.90;;;;;;5051365;28;20032;-58
2021/11/19 08:07:03;;;;;;;19.10;13.32;;;10.00;99.90;;;;;;5052296;28;20052;-58
2021/11/19 08:09:28;;;;;;;16.58;12.75;;;9.90;99.90;;;;;;5052010;28;20044;-57
2021/11/19 08:11:55;;;;;;;16.45;12.93;;;10.00;99.90;;;;;;5052326;28;20037;-58
2021/11/19 08:14:21;;;;;;;17.30;13.38;;;9.90;99.90;;;;;;5045599;28;20037;-57
2021/11/19 08:16:53;;;;;;;16.77;13.73;;;10.00;99.90;;;;;;5044642;28;20083;-60
2021/11/19 08:19:25;;;;;;;18.75;13.23;;;10.00;99.90;;;;;;5045022;28;20493;-60
2021/11/19 08:21:52;;;;;;;17.40;12.70;;;10.00;99.90;;;;;;5042793;28;20506;-59
2021/11/19 08:24:18;;;;;;;15.20;12.68;;;10.00;99.90;;;;;;5043369;28;20492;-59
2021/11/19 08:26:47;;;;;;;16.08;12.52;;;10.00;99.90;;;;;;5041049;28;20049;-56
2021/11/19 08:29:18;;;;;;;14.70;11.23;;;10.00;99.90;;;;;;5040725;28;20120;-61
2021/11/19 08:31:44;;;;;;;14.45;11.52;;;10.00;99.90;;;;;;5051393;28;20456;-57
2021/11/19 08:34:10;;;;;;;15.90;12.15;;;10.00;99.90;;;;;;5046113;28;20045;-58
2021/11/19 08:36:36;;;;;;;15.02;12.00;;;10.10;99.90;;;;;;5032025;28;20061;-61
2021/11/19 08:39:07;;;;;;;15.18;11.40;;;10.20;99.90;;;;;;5031993;28;20381;-59
2021/11/19 08:41:34;;;;;;;16.30;11.77;;;10.20;99.90;;;;;;5048262;28;20033;-59
2021/11/19 08:44:01;;;;;;;16.25;11.32;;;10.10;99.90;;;;;;5052509;28;20036;-61
2021/11/19 08:46:30;;;;;;;18.27;12.63;;;10.20;99.90;;;;;;5052427;28;20040;-57
2021/11/19 08:49:01;;;;;;;15.40;12.38;;;10.10;99.90;;;;;;5052292;28;20041;-55
2021/11/19 08:51:29;;;;;;;15.70;11.60;;;10.10;99.90;;;;;;5051485;28;20037;-58
2021/11/19 08:53:59;;;;;;;13.85;12.23;;;10.20;99.90;;;;;;5054165;28;20032;-59
2021/11/19 08:56:25;;;;;;;13.63;11.30;;;10.20;99.90;;;;;;5053666;28;20116;-55
2021/11/19 08:58:52;;;;;;;15.00;12.18;;;10.20;99.90;;;;;;5052188;28;20029;-55
2021/11/19 09:01:19;;;;;;;17.23;13.27;;;10.20;99.90;;;;;;5044712;28;20041;-59
2021/11/19 09:03:46;;;;;;;14.93;12.38;;;10.20;99.90;;;;;;5041136;28;20125;-59
2021/11/19 09:06:13;;;;;;;15.70;12.10;;;10.20;99.90;;;;;;5033542;28;20038;-60
2021/11/19 09:08:40;;;;;;;17.10;13.10;;;10.30;99.90;;;;;;5035764;28;20049;-57
2021/11/19 09:11:08;;;;;;;15.70;12.02;;;10.30;99.90;;;;;;5033023;28;20041;-59
2021/11/19 09:13:35;;;;;;;16.10;12.15;;;10.30;99.90;;;;;;5034856;28;20025;-59
2021/11/19 09:16:04;;;;;;;14.27;11.25;;;10.30;99.90;;;;;;5040951;28;20040;-60
2021/11/19 09:18:35;;;;;;;15.07;12.02;;;10.40;99.90;;;;;;5041780;28;20488;-60
2021/11/19 09:21:11;;;;;;;14.88;10.77;;;10.30;99.90;;;;;;5041479;28;20083;-59
2021/11/19 09:23:41;;;;;;;15.77;11.50;;;10.40;99.90;;;;;;5041522;28;20029;-58
2021/11/19 09:26:10;;;;;;;15.35;11.70;;;10.40;99.90;;;;;;5041756;28;20021;-60
2021/11/19 09:28:38;;;;;;;13.68;11.70;;;10.30;99.90;;;;;;5038320;28;20092;-56
2021/11/19 09:31:06;;;;;;;13.95;11.45;;;10.30;99.90;;;;;;5038109;28;20052;-60
2021/11/19 09:33:32;;;;;;;12.85;10.95;;;10.40;99.90;;;;;;5042822;28;20037;-59
2021/11/19 09:35:58;;;;;;;14.88;10.73;;;10.40;99.90;;;;;;5039290;28;20033;-58
2021/11/19 09:38:26;;;;;;;13.40;11.13;;;10.50;99.90;;;;;;5042631;28;20044;-58
2021/11/19 09:41:07;;;;;;;14.25;11.27;;;10.40;99.90;;;;;;5041236;28;20052;-60
2021/11/19 09:43:58;;;;;;;14.23;10.65;;;10.50;99.90;;;;;;5041715;28;20112;-59
2021/11/19 09:46:39;;;;;;;12.20;10.40;;;10.50;99.90;;;;;;5048805;28;20060;-60
2021/11/19 09:49:31;;;;;;;13.45;10.63;;;10.60;99.90;;;;;;5047960;28;20032;-60
2021/11/19 09:52:34;;;;;;;12.98;11.52;;;10.60;99.90;;;;;;5046071;28;20083;-59
2021/11/19 09:55:43;;;;;;;14.52;11.35;;;10.60;99.90;;;;;;5042946;28;20079;-59
2021/11/19 09:58:31;;;;;;;13.75;10.73;;;10.50;99.90;;;;;;5044274;28;20029;-55
2021/11/19 10:01:15;;;;;;;13.90;10.35;;;10.50;99.90;;;;;;5039590;28;20021;-59
2021/11/19 10:04:05;;;;;;;13.70;10.98;;;10.60;99.90;;;;;;5049358;28;20037;-59
2021/11/19 10:06:39;;;;;;;12.05;9.68;;;10.60;99.90;;;;;;5041058;28;20076;-56
2021/11/19 10:09:17;;;;;;;12.13;10.50;;;10.70;99.90;;;;;;5038231;28;20039;-60
2021/11/19 10:11:48;;;;;;;15.10;9.95;;;10.70;99.90;;;;;;5043155;28;20499;-61
2021/11/19 10:14:43;;;;;;;12.57;10.18;;;10.70;99.90;;;;;;5040429;28;20029;-60
2021/11/19 10:17:30;;;;;;;12.15;10.27;;;10.80;99.90;;;;;;5042527;28;20047;-58
2021/11/19 10:20:11;;;;;;;11.63;10.40;;;10.80;99.90;;;;;;5049825;28;20021;-57
2021/11/19 10:22:42;;;;;;;12.55;9.85;;;10.80;99.90;;;;;;5050166;28;20034;-61
2021/11/19 10:25:22;;;;;;;13.05;9.68;;;10.90;99.90;;;;;;5047650;28;20447;-62
2021/11/19 10:27:51;;;;;;;11.48;10.13;;;10.90;99.90;;;;;;5048880;28;20370;-59
2021/11/19 10:30:35;;;;;;;9.95;8.95;;;10.80;99.90;;;;;;5046863;28;20071;-57
2021/11/19 10:33:13;;;;;;;11.15;9.50;;;10.80;99.90;;;;;;5047264;28;20024;-61
2021/11/19 10:35:52;;;;;;;12.13;9.32;;;10.90;99.90;;;;;;5055251;28;20033;-59
2021/11/19 10:38:52;;;;;;;13.25;9.65;;;11.00;99.90;;;;;;5049266;28;20112;-59
2021/11/19 10:41:45;;;;;;;11.68;9.55;;;10.90;99.90;;;;;;5050664;28;20037;-55
2021/11/19 10:44:32;;;;;;;13.07;9.40;;;11.00;99.90;;;;;;5049700;28;20036;-60
2021/11/19 10:47:03;;;;;;;10.27;9.18;;;10.90;99.90;;;;;;5050611;28;20032;-61
2021/11/19 10:49:35;;;;;;;11.75;9.10;;;11.00;99.90;;;;;;5045878;28;20032;-60
2021/11/19 10:52:37;;;;;;;11.80;9.23;;;11.00;99.90;;;;;;5046408;28;20033;-61
2021/11/19 10:55:40;;;;;;;9.18;8.13;;;11.00;99.90;;;;;;5051876;28;20022;-61
2021/11/19 10:58:47;;;;;;;9.93;8.48;;;11.00;99.90;;;;;;5049400;28;20369;-64
2021/11/19 11:01:21;;;;;;;10.55;7.55;;;11.10;99.90;;;;;;5043541;28;20112;-61
2021/11/19 11:03:53;;;;;;;10.95;7.90;;;11.10;99.90;;;;;;5049019;28;20049;-60
2021/11/19 11:06:19;;;;;;;11.75;7.97;;;11.20;99.90;;;;;;5034880;28;20489;-57
2021/11/19 11:08:47;;;;;;;9.35;8.18;;;11.40;99.90;;;;;;5037186;28;20051;-60
2021/11/19 11:11:30;;;;;;;7.78;6.75;;;11.40;99.90;;;;;;5034706;28;20036;-60
2021/11/19 11:13:56;;;;;;;8.98;7.45;;;11.30;99.90;;;;;;5037378;28;20029;-58
2021/11/19 11:16:23;;;;;;;11.23;8.35;;;11.20;99.90;;;;;;5035283;28;20519;-59
2021/11/19 11:19:15;;;;;;;8.60;7.03;;;11.20;99.90;;;;;;5035814;28;20078;-59
2021/11/19 11:21:49;;;;;;;8.65;7.45;;;11.20;99.90;;;;;;5043629;28;20448;-60
2021/11/19 11:24:29;;;;;;;9.57;7.53;;;11.30;99.90;;;;;;5055423;28;20032;-60
2021/11/19 11:27:12;;;;;;;11.60;7.43;;;11.10;99.90;;;;;;5056014;28;20033;-59
2021/11/19 11:29:52;;;;;;;8.38;7.00;;;11.20;99.90;;;;;;5054962;28;20300;-58
2021/11/19 11:32:48;;;;;;;9.32;7.50;;;11.20;99.90;;;;;;5055551;28;20120;-61
2021/11/19 11:35:30;;;;;;;8.38;7.30;;;11.30;99.90;;;;;;5054950;28;20039;-60
2021/11/19 11:38:24;;;;;;;8.82;7.35;;;11.30;99.90;;;;;;5054047;28;20043;-60
2021/11/19 11:41:19;;;;;;;8.00;7.00;;;11.20;99.90;;;;;;5042183;28;20037;-60
2021/11/19 11:44:04;;;;;;;9.10;6.55;;;11.20;99.90;;;;;;5048119;28;20037;-63
2021/11/19 11:46:47;;;;;;;7.63;6.50;;;11.20;99.90;;;;;;5046623;28;20063;-59
2021/11/19 11:49:22;;;;;;;7.75;6.25;;;11.20;99.90;;;;;;5052612;28;20067;-59
2021/11/19 11:52:06;;;;;;;7.20;6.28;;;11.30;99.90;;;;;;5053535;28;20029;-60
2021/11/19 11:54:32;;;;;;;7.65;6.22;;;11.20;99.90;;;;;;5053852;28;20055;-62
2021/11/19 11:57:31;;;;;;;11.75;6.10;;;11.20;99.90;;;;;;5054140;28;20029;-63
2021/11/19 12:00:32;;;;;;;10.10;6.57;;;11.20;99.90;;;;;;5051610;28;20025;-57
2021/11/19 12:03:14;;;;;;;8.65;6.05;;;11.20;99.90;;;;;;5045133;28;20039;-60
2021/11/19 12:06:10;;;;;;;8.30;6.18;;;11.20;99.90;;;;;;5054227;28;20021;-61
2021/11/19 12:08:47;;;;;;;7.30;6.03;;;11.30;99.90;;;;;;5049094;28;20037;-61
2021/11/19 12:11:45;;;;;;;7.45;6.60;;;11.30;99.90;;;;;;5046364;28;20024;-59
2021/11/19 12:14:10;;;;;;;8.85;7.05;;;11.20;99.90;;;;;;5022788;28;20532;-62
2021/11/19 12:17:01;;;;;;;7.30;6.30;;;11.20;99.90;;;;;;5064271;28;20047;-63
2021/11/19 12:19:42;;;;;;;7.43;6.25;;;11.10;99.90;;;;;;5033866;28;20505;-62
2021/11/19 12:22:31;;;;;;;7.60;6.60;;;11.20;99.90;;;;;;5048187;28;20033;-62
2021/11/19 12:25:34;;;;;;;7.57;6.40;;;11.10;99.90;;;;;;5048017;28;20497;-57
2021/11/19 12:28:18;;;;;;;8.70;6.00;;;11.10;99.90;;;;;;5053972;28;20400;-60
2021/11/19 12:30:56;;;;;;;9.02;7.05;;;11.20;99.90;;;;;;5053060;28;20124;-58
2021/11/19 12:33:50;;;;;;;8.73;7.30;;;11.20;99.90;;;;;;5055033;28;20112;-61
2021/11/19 12:36:36;;;;;;;8.15;6.40;;;11.10;99.90;;;;;;5053208;28;20405;-61
2021/11/19 12:39:06;;;;;;;6.97;6.10;;;11.10;99.90;;;;;;5048378;28;20029;-61
2021/11/19 12:41:53;;;;;;;7.75;6.60;;;11.10;99.90;;;;;;5053629;28;20071;-62
2021/11/19 12:44:41;;;;;;;8.23;6.90;;;11.20;99.90;;;;;;5033774;28;20033;-61
2021/11/19 12:47:31;;;;;;;7.82;5.78;;;11.10;99.90;;;;;;5033687;28;20034;-61
2021/11/19 12:50:15;;;;;;;9.15;6.10;;;11.20;99.90;;;;;;5032925;28;20037;-60
2021/11/19 12:53:08;;;;;;;6.18;5.25;;;11.20;99.90;;;;;;5032775;28;20485;-59
2021/11/19 12:56:01;;;;;;;8.57;6.47;;;11.20;99.90;;;;;;5047246;28;20044;-59
2021/11/19 12:58:32;;;;;;;7.45;5.78;;;11.10;99.90;;;;;;5057352;28;20028;-61
2021/11/19 13:01:28;;;;;;;7.38;5.82;;;11.10;99.90;;;;;;5060433;28;20025;-61